createdAt,value
2023-01-30T00:04:22.678Z,0.69
2023-01-30T00:09:22.302Z,0.70
2023-01-30T00:10:05.894Z,0.70
2023-01-30T00:14:22.346Z,0.72
2023-01-30T00:19:22.739Z,0.72
2023-01-30T00:24:22.397Z,0.68
2023-01-30T00:27:59.159Z,0.72
2023-01-30T00:29:22.273Z,0.72
2023-01-30T00:34:22.762Z,0.73
2023-01-30T00:39:22.376Z,0.75
2023-01-30T00:43:16.320Z,0.78
2023-01-30T00:44:32.233Z,0.78
2023-01-30T00:49:22.503Z,0.71
2023-01-30T00:54:22.310Z,0.68
2023-01-30T00:59:22.310Z,0.68
2023-01-30T01:04:22.430Z,0.66
2023-01-30T01:09:22.536Z,0.67
2023-01-30T01:14:22.340Z,0.67
2023-01-30T01:17:05.378Z,0.70
2023-01-30T01:19:22.261Z,0.70
2023-01-30T01:24:22.341Z,0.68
2023-01-30T01:29:22.749Z,0.70
2023-01-30T01:32:46.584Z,0.74
2023-01-30T01:34:22.456Z,0.74
2023-01-30T01:39:22.754Z,0.77
2023-01-30T01:44:24.056Z,0.81
2023-01-30T01:47:15.405Z,0.81
2023-01-30T01:49:25.818Z,0.81
2023-01-30T01:52:27.940Z,0.80
2023-01-30T01:54:28.235Z,0.80
2023-01-30T01:59:29.208Z,0.85
2023-01-30T02:04:33.433Z,0.87
2023-01-30T02:06:00.117Z,0.87
2023-01-30T02:09:22.510Z,0.84
2023-01-30T02:14:23.222Z,0.87
2023-01-30T02:19:30.946Z,0.87
2023-01-30T02:24:41.961Z,0.90
2023-01-30T02:29:38.643Z,0.89
2023-01-30T02:34:20.013Z,0.88
2023-01-30T02:34:32.500Z,0.88
2023-01-30T02:39:32.326Z,0.91
2023-01-30T02:44:29.341Z,0.93
2023-01-30T02:49:28.217Z,0.87
2023-01-30T02:54:22.480Z,0.85
2023-01-30T02:57:34.860Z,0.82
2023-01-30T02:59:28.936Z,0.82
2023-01-30T03:04:36.767Z,0.79
2023-01-30T03:09:37.071Z,0.73
2023-01-30T03:14:26.349Z,0.68
2023-01-30T03:16:05.911Z,0.68
2023-01-30T03:19:22.352Z,0.64
2023-01-30T03:21:48.223Z,0.62
2023-01-30T03:24:23.002Z,0.62
2023-01-30T03:29:22.770Z,0.66
2023-01-30T03:34:22.129Z,0.60
2023-01-30T03:39:23.358Z,0.57
2023-01-30T03:44:22.149Z,0.57
2023-01-30T03:49:22.611Z,0.51
2023-01-30T03:50:56.038Z,0.51
2023-01-30T03:54:22.164Z,0.48
2023-01-30T03:59:22.460Z,0.42
2023-01-30T04:04:22.637Z,0.35
2023-01-30T04:09:22.118Z,0.28
2023-01-30T04:13:43.131Z,0.21
2023-01-30T04:14:22.132Z,0.21
2023-01-30T04:19:22.530Z,0.24
2023-01-30T04:24:22.143Z,0.25
2023-01-30T04:24:49.245Z,0.25
2023-01-30T04:29:22.093Z,0.21
2023-01-30T04:30:38.214Z,0.21
2023-01-30T04:34:22.404Z,0.21
2023-01-30T04:34:31.829Z,0.21
2023-01-30T04:39:22.267Z,0.18
2023-01-30T04:44:22.591Z,0.08
2023-01-30T04:49:22.061Z,0.11
2023-01-30T04:50:42.392Z,0.11
2023-01-30T04:54:22.272Z,0.11
2023-01-30T04:55:22.290Z,0.11
2023-01-30T04:59:22.472Z,0.18
2023-01-30T05:04:22.061Z,0.18
2023-01-30T05:09:22.707Z,0.23
2023-01-30T05:14:22.127Z,0.29
2023-01-30T05:19:22.086Z,0.33
2023-01-30T05:21:42.251Z,0.34
2023-01-30T05:24:22.045Z,0.34
2023-01-30T05:29:22.312Z,0.33
2023-01-30T05:34:22.280Z,0.34
2023-01-30T05:39:22.058Z,0.38
2023-01-30T05:44:22.404Z,0.35
2023-01-30T05:49:22.400Z,0.37
2023-01-30T05:54:22.025Z,0.37
2023-01-30T05:56:05.180Z,0.37
2023-01-30T05:59:22.166Z,0.41
2023-01-30T06:00:30.563Z,0.41
2023-01-30T06:04:22.088Z,0.41
2023-01-30T06:05:56.584Z,0.41
2023-01-30T06:07:13.301Z,0.34
2023-01-30T06:09:21.999Z,0.34
2023-01-30T06:14:22.493Z,0.39
2023-01-30T06:19:22.219Z,0.36
2023-01-30T06:24:22.251Z,0.40
2023-01-30T06:29:22.219Z,0.40
2023-01-30T06:30:12.906Z,0.40
2023-01-30T06:34:22.076Z,0.38
2023-01-30T06:39:22.221Z,0.38
2023-01-30T06:44:22.580Z,0.38
2023-01-30T06:49:21.966Z,0.40
2023-01-30T06:54:22.138Z,0.42
2023-01-30T06:59:22.550Z,0.48
2023-01-30T07:04:21.990Z,0.44
2023-01-30T07:09:22.011Z,0.43
2023-01-30T07:14:22.255Z,0.42
2023-01-30T07:19:22.028Z,0.40
2023-01-30T07:23:50.648Z,0.37
2023-01-30T07:24:21.940Z,0.37
2023-01-30T07:25:36.031Z,0.37
2023-01-30T07:29:22.015Z,0.41
2023-01-30T07:32:57.090Z,0.39
2023-01-30T07:34:21.991Z,0.39
2023-01-30T07:39:22.291Z,0.34
2023-01-30T07:44:22.000Z,0.23
2023-01-30T07:49:13.165Z,0.07
2023-01-30T07:49:21.951Z,0.07
2023-01-30T07:52:47.062Z,0.03
2023-01-30T07:54:22.033Z,0.03
2023-01-30T07:55:44.083Z,0.03
2023-01-30T07:56:55.759Z,0.06
2023-01-30T07:59:21.942Z,0.06
2023-01-30T08:03:13.577Z,-0.08
2023-01-30T08:04:22.090Z,-0.08
2023-01-30T08:09:22.133Z,-0.12
2023-01-30T08:10:21.405Z,-0.12
2023-01-30T08:14:22.356Z,-0.19
2023-01-30T08:17:31.822Z,-0.18
2023-01-30T08:19:22.063Z,-0.18
2023-01-30T08:24:21.927Z,-0.19
2023-01-30T08:29:24.282Z,-0.14
2023-01-30T08:34:21.915Z,-0.11
2023-01-30T08:39:21.887Z,-0.25
2023-01-30T08:42:26.552Z,-0.23
2023-01-30T08:44:22.053Z,-0.23
2023-01-30T08:49:21.855Z,-0.25
2023-01-30T08:53:42.847Z,-0.35
2023-01-30T08:54:21.969Z,-0.35
2023-01-30T08:59:22.065Z,-0.40
2023-01-30T09:04:23.987Z,-0.40
2023-01-30T09:06:18.559Z,-0.41
2023-01-30T09:09:22.013Z,-0.41
2023-01-30T09:14:22.166Z,-0.34
2023-01-30T09:19:23.747Z,-0.30
2023-01-30T09:24:25.495Z,-0.31
2023-01-30T09:24:35.808Z,-0.31
2023-01-30T09:29:22.714Z,-0.27
2023-01-30T09:32:52.854Z,-0.24
2023-01-30T09:34:26.417Z,-0.24
2023-01-30T09:37:34.652Z,-0.20
2023-01-30T09:39:22.701Z,-0.20
2023-01-30T09:39:32.927Z,-0.20
2023-01-30T09:44:41.280Z,-0.19
2023-01-30T09:49:35.889Z,-0.13
2023-01-30T09:54:28.573Z,-0.18
2023-01-30T09:59:27.042Z,-0.03
2023-01-30T10:04:27.516Z,-0.07
2023-01-30T10:09:30.082Z,-0.08
2023-01-30T10:13:59.854Z,-0.10
2023-01-30T10:14:41.175Z,-0.10
2023-01-30T10:17:58.488Z,-0.03
2023-01-30T10:19:36.743Z,-0.03
2023-01-30T10:23:11.360Z,-0.01
2023-01-30T10:24:36.160Z,-0.01
2023-01-30T10:29:28.062Z,0.12
2023-01-30T10:34:27.908Z,0.07
2023-01-30T10:37:57.477Z,0.11
2023-01-30T10:39:28.888Z,0.11
2023-01-30T10:42:11.983Z,0.15
2023-01-30T10:44:22.631Z,0.15
2023-01-30T10:49:35.636Z,0.19
2023-01-30T10:51:32.911Z,0.21
2023-01-30T10:54:27.661Z,0.21
2023-01-30T10:55:37.929Z,0.21
2023-01-30T10:58:47.761Z,0.12
2023-01-30T10:59:27.057Z,0.12
2023-01-30T11:04:27.707Z,0.08
2023-01-30T11:09:24.340Z,0.14
2023-01-30T11:11:49.118Z,0.19
2023-01-30T11:14:21.823Z,0.19
2023-01-30T11:14:52.976Z,0.19
2023-01-30T11:19:23.853Z,0.26
2023-01-30T11:19:55.605Z,0.26
2023-01-30T11:24:27.819Z,0.37
2023-01-30T11:29:28.467Z,0.42
2023-01-30T11:33:11.888Z,0.48
2023-01-30T11:34:23.362Z,0.48
2023-01-30T11:34:33.316Z,0.48
2023-01-30T11:39:27.849Z,0.62
2023-01-30T11:41:19.830Z,0.75
2023-01-30T11:42:10.898Z,0.75
2023-01-30T11:44:25.728Z,0.75
2023-01-30T11:46:18.907Z,0.82
2023-01-30T11:49:46.059Z,0.82
2023-01-30T11:49:48.190Z,0.82
2023-01-30T11:54:29.318Z,0.86
2023-01-30T11:55:38.070Z,0.86
2023-01-30T11:59:25.540Z,0.86
2023-01-30T12:03:20.720Z,0.86
2023-01-30T12:04:21.993Z,0.86
2023-01-30T12:09:31.648Z,0.91
2023-01-30T12:10:28.043Z,0.91
2023-01-30T12:12:35.069Z,0.81
2023-01-30T12:14:34.420Z,0.81
2023-01-30T12:16:53.145Z,0.77
2023-01-30T12:19:33.058Z,0.77
2023-01-30T12:24:27.670Z,0.72
2023-01-30T12:29:28.909Z,0.65
2023-01-30T12:31:41.181Z,0.68
2023-01-30T12:33:10.989Z,0.68
2023-01-30T12:34:25.789Z,0.68
2023-01-30T12:34:35.011Z,0.68
2023-01-30T12:39:33.342Z,0.73
2023-01-30T12:39:59.050Z,0.73
2023-01-30T12:44:41.722Z,0.85
2023-01-30T12:46:36.113Z,0.88
2023-01-30T12:49:34.496Z,0.88
2023-01-30T12:54:36.495Z,0.90
2023-01-30T12:59:27.719Z,0.92
2023-01-30T13:03:02.942Z,0.91
2023-01-30T13:04:40.026Z,0.91
2023-01-30T13:09:41.723Z,0.93
2023-01-30T13:14:29.809Z,0.94
2023-01-30T13:19:40.442Z,1.02
2023-01-30T13:21:10.785Z,1.05
2023-01-30T13:24:37.772Z,1.05
2023-01-30T13:29:28.953Z,1.03
2023-01-30T13:34:27.522Z,1.07
2023-01-30T13:39:09.480Z,1.08
2023-01-30T13:39:31.543Z,1.08
2023-01-30T13:43:21.471Z,1.09
2023-01-30T13:44:26.623Z,1.09
2023-01-30T13:49:27.737Z,1.10
2023-01-30T13:51:21.619Z,1.07
2023-01-30T13:54:35.799Z,1.07
2023-01-30T13:59:39.478Z,1.06
2023-01-30T14:00:36.394Z,1.06
2023-01-30T14:04:42.116Z,1.08
2023-01-30T14:09:27.882Z,1.08
2023-01-30T14:14:26.592Z,1.10
2023-01-30T14:19:32.688Z,1.11
2023-01-30T14:24:24.052Z,1.12
2023-01-30T14:29:41.707Z,1.15
2023-01-30T14:34:40.406Z,1.23
2023-01-30T14:39:36.443Z,1.25
2023-01-30T14:42:06.197Z,1.25
2023-01-30T14:43:16.749Z,1.25
2023-01-30T14:44:41.380Z,1.25
2023-01-30T14:46:22.100Z,1.26
2023-01-30T14:49:26.057Z,1.26
2023-01-30T14:54:33.247Z,1.30
2023-01-30T14:59:25.389Z,1.33
2023-01-30T15:04:22.132Z,1.43
2023-01-30T15:06:01.515Z,1.43
2023-01-30T15:09:24.638Z,1.47
2023-01-30T15:14:29.995Z,1.54
2023-01-30T15:19:41.488Z,1.61
2023-01-30T15:24:35.973Z,1.69
2023-01-30T15:29:32.846Z,1.69
2023-01-30T15:34:22.517Z,1.73
2023-01-30T15:39:23.698Z,1.74
2023-01-30T15:43:46.180Z,1.82
2023-01-30T15:44:38.665Z,1.82
2023-01-30T15:46:15.882Z,1.79
2023-01-30T15:49:39.379Z,1.79
2023-01-30T15:54:23.090Z,1.83
2023-01-30T15:58:31.990Z,1.83
2023-01-30T15:59:29.315Z,1.83
2023-01-30T16:00:56.348Z,1.83
2023-01-30T16:04:25.855Z,1.82
2023-01-30T16:06:04.247Z,1.82
2023-01-30T16:09:19.237Z,1.82
2023-01-30T16:09:23.253Z,1.82
2023-01-30T16:14:22.010Z,1.81
2023-01-30T16:16:02.199Z,1.81
2023-01-30T16:19:25.672Z,1.88
2023-01-30T16:19:31.377Z,1.88
2023-01-30T16:24:25.272Z,1.93
2023-01-30T16:29:25.223Z,1.90
2023-01-30T16:32:13.891Z,1.92
2023-01-30T16:33:59.643Z,1.92
2023-01-30T16:34:27.703Z,1.92
2023-01-30T16:38:44.628Z,1.94
2023-01-30T16:39:27.818Z,1.94
2023-01-30T16:42:56.641Z,1.95
2023-01-30T16:44:23.587Z,1.95
2023-01-30T16:49:23.923Z,1.93
2023-01-30T16:50:43.977Z,1.93
2023-01-30T16:54:26.902Z,1.98
2023-01-30T16:55:36.712Z,1.98
2023-01-30T16:59:29.927Z,1.97
2023-01-30T17:04:23.046Z,1.99
2023-01-30T17:09:34.066Z,1.99
2023-01-30T17:10:59.107Z,1.99
2023-01-30T17:14:23.127Z,2.01
2023-01-30T17:19:21.454Z,2.06
2023-01-30T17:24:22.761Z,2.08
2023-01-30T17:29:41.053Z,2.04
2023-01-30T17:34:22.419Z,2.07
2023-01-30T17:38:14.063Z,2.09
2023-01-30T17:39:24.598Z,2.09
2023-01-30T17:44:21.502Z,2.13
2023-01-30T17:49:23.089Z,2.18
2023-01-30T17:53:17.305Z,2.17
2023-01-30T17:54:21.644Z,2.17
2023-01-30T17:59:21.783Z,2.16
2023-01-30T18:02:27.682Z,2.14
2023-01-30T18:04:21.419Z,2.14
2023-01-30T18:04:52.681Z,2.14
2023-01-30T18:09:23.305Z,2.19
2023-01-30T18:11:00.288Z,2.19
2023-01-30T18:14:22.892Z,2.19
2023-01-30T18:14:43.355Z,2.19
2023-01-30T18:17:00.996Z,2.22
2023-01-30T18:19:22.921Z,2.22
2023-01-30T18:21:16.873Z,2.26
2023-01-30T18:24:21.396Z,2.26
2023-01-30T18:29:21.649Z,2.30
2023-01-30T18:34:21.359Z,2.28
2023-01-30T18:36:17.093Z,2.29
2023-01-30T18:38:01.487Z,2.29
2023-01-30T18:39:21.367Z,2.29
2023-01-30T18:44:21.681Z,2.30
2023-01-30T18:46:45.652Z,2.26
2023-01-30T18:49:21.363Z,2.26
2023-01-30T18:53:52.649Z,2.30
2023-01-30T18:54:21.410Z,2.30
2023-01-30T18:56:33.078Z,2.30
2023-01-30T18:59:22.369Z,2.30
2023-01-30T19:04:21.320Z,2.32
2023-01-30T19:09:21.779Z,2.33
2023-01-30T19:14:21.379Z,2.29
2023-01-30T19:16:12.987Z,2.28
2023-01-30T19:19:21.544Z,2.28
2023-01-30T19:23:25.918Z,2.28
2023-01-30T19:24:22.753Z,2.28
2023-01-30T19:29:21.327Z,2.28
2023-01-30T19:34:21.424Z,2.26
2023-01-30T19:39:21.477Z,2.23
2023-01-30T19:41:46.269Z,2.25
2023-01-30T19:44:21.417Z,2.25
2023-01-30T19:48:31.276Z,2.27
2023-01-30T19:49:21.384Z,2.27
2023-01-30T19:54:21.369Z,2.26
2023-01-30T19:59:21.831Z,2.30
2023-01-30T20:04:21.311Z,2.28
2023-01-30T20:09:21.470Z,2.26
2023-01-30T20:14:21.793Z,2.25
2023-01-30T20:19:21.298Z,2.27
2023-01-30T20:20:18.364Z,2.27
2023-01-30T20:24:21.405Z,2.26
2023-01-30T20:29:21.679Z,2.23
2023-01-30T20:34:21.403Z,2.21
2023-01-30T20:36:15.664Z,2.15
2023-01-30T20:39:21.501Z,2.15
2023-01-30T20:44:21.822Z,2.16
2023-01-30T20:46:39.923Z,2.18
2023-01-30T20:49:22.271Z,2.18
2023-01-30T20:52:01.321Z,2.25
2023-01-30T20:54:22.445Z,2.25
2023-01-30T20:55:33.168Z,2.25
2023-01-30T20:58:31.442Z,2.25
2023-01-30T20:59:23.312Z,2.25
2023-01-30T20:59:44.137Z,2.25
2023-01-30T21:00:31.016Z,2.25
2023-01-30T21:04:23.303Z,2.21
2023-01-30T21:06:58.089Z,2.28
2023-01-30T21:09:22.492Z,2.28
2023-01-30T21:11:20.983Z,2.29
2023-01-30T21:14:21.558Z,2.29
2023-01-30T21:19:23.244Z,2.33
2023-01-30T21:24:23.552Z,2.37
2023-01-30T21:24:45.097Z,2.37
2023-01-30T21:27:14.348Z,2.31
2023-01-30T21:29:23.662Z,2.31
2023-01-30T21:34:00.523Z,2.33
2023-01-30T21:34:21.393Z,2.33
2023-01-30T21:35:26.450Z,2.33
2023-01-30T21:39:31.479Z,2.28
2023-01-30T21:44:25.022Z,2.34
2023-01-30T21:49:24.236Z,2.32
2023-01-30T21:50:36.561Z,2.32
2023-01-30T21:51:32.438Z,2.31
2023-01-30T21:54:22.096Z,2.31
2023-01-30T21:57:48.233Z,2.33
2023-01-30T21:59:21.172Z,2.33
2023-01-30T22:01:49.373Z,2.28
2023-01-30T22:04:21.399Z,2.28
2023-01-30T22:08:37.449Z,2.29
2023-01-30T22:09:21.268Z,2.29
2023-01-30T22:14:21.278Z,2.29
2023-01-30T22:19:21.486Z,2.22
2023-01-30T22:21:35.308Z,2.18
2023-01-30T22:24:21.354Z,2.18
2023-01-30T22:29:22.074Z,2.25
2023-01-30T22:34:21.636Z,2.18
2023-01-30T22:39:21.173Z,2.14
2023-01-30T22:44:21.610Z,2.20
2023-01-30T22:49:21.285Z,2.22
2023-01-30T22:54:22.655Z,2.20
2023-01-30T22:59:22.225Z,2.14
2023-01-30T23:04:22.755Z,2.16
2023-01-30T23:09:22.440Z,2.09
2023-01-30T23:14:08.600Z,2.12
2023-01-30T23:14:21.036Z,2.12
2023-01-30T23:19:21.471Z,2.14
2023-01-30T23:20:47.072Z,2.14
2023-01-30T23:21:43.959Z,2.20
2023-01-30T23:24:21.361Z,2.20
2023-01-30T23:27:18.257Z,2.21
2023-01-30T23:29:21.090Z,2.21
2023-01-30T23:34:21.430Z,2.18
2023-01-30T23:39:21.195Z,2.16
2023-01-30T23:44:21.299Z,2.19
2023-01-30T23:49:21.579Z,2.16
2023-01-30T23:54:21.080Z,2.14
2023-01-30T23:55:55.021Z,2.14
2023-01-30T23:59:21.241Z,2.17
